Time;durP1;ratioP1;P1;durP2;ratioP2;P2;SDS_P1;SDS_P2;PMS_P1;PMS_P2;Temp;Humidity;BMP_temperature;BMP_pressure;BME280_temperature;BME280_humidity;BME280_pressure;Samples;Min_cycle;Max_cycle;Signal;HPM_P1;HPM_P2
2022/12/29 01:01:43;;;;;;;4.07;1.13;;;;;;;6.87;100.00;95784.78;4876870;29;20034;-95
2022/12/29 04:57:25;;;;;;;3.60;1.30;;;;;;;6.55;100.00;95736.44;4942232;29;20054;-94
2022/12/29 06:53:31;;;;;;;2.20;1.10;;;;;;;5.53;100.00;95735.56;4949189;29;20078;-95
2022/12/29 06:56:54;;;;;;;3.27;1.30;;;;;;;5.49;100.00;95726.38;4907670;29;20066;-93
2022/12/29 07:01:06;;;;;;;5.83;2.10;;;;;;;5.38;100.00;95736.00;4935957;29;20050;-95
2022/12/29 07:07:29;;;;;;;5.10;1.60;;;;;;;5.36;100.00;95732.69;4926664;29;20051;-93
2022/12/29 07:14:12;;;;;;;4.17;1.30;;;;;;;5.36;100.00;95735.28;4870915;29;20149;-90
2022/12/29 07:16:38;;;;;;;5.43;2.30;;;;;;;5.32;100.00;95736.53;4920888;29;20055;-91
2022/12/29 07:19:12;;;;;;;4.30;1.47;;;;;;;5.30;100.00;95741.09;4924007;29;20035;-90
2022/12/29 07:21:38;;;;;;;4.90;1.50;;;;;;;5.28;100.00;95747.41;4920177;29;20050;-91
2022/12/29 07:24:04;;;;;;;4.33;2.10;;;;;;;5.26;100.00;95742.31;4940195;29;20032;-93
2022/12/29 07:26:30;;;;;;;5.80;2.93;;;;;;;5.23;100.00;95742.63;4906890;29;20023;-92
2022/12/29 07:28:55;;;;;;;19.80;9.40;;;;;;;5.27;100.00;95737.94;4914968;29;20102;-92
2022/12/29 07:31:23;;;;;;;22.53;9.80;;;;;;;5.24;100.00;95728.59;4919690;29;20585;-92
2022/12/29 07:33:54;;;;;;;13.43;5.57;;;;;;;5.27;100.00;95730.94;4921828;29;20039;-92
2022/12/29 07:36:32;;;;;;;8.43;2.90;;;;;;;5.28;100.00;95729.16;4917791;29;20122;-93
2022/12/29 07:38:58;;;;;;;5.50;2.17;;;;;;;5.18;100.00;95721.34;4904762;29;20039;-93
2022/12/29 07:41:24;;;;;;;4.20;1.63;;;;;;;5.28;100.00;95729.97;4939985;29;20039;-93
2022/12/29 07:43:50;;;;;;;5.87;1.80;;;;;;;5.36;100.00;95727.47;4936589;29;20034;-94
2022/12/29 07:46:44;;;;;;;5.63;1.57;;;;;;;5.41;100.00;95720.06;4918298;29;20135;-91
2022/12/29 07:49:10;;;;;;;4.13;1.23;;;;;;;5.48;100.00;95724.72;4933830;29;20063;-91
2022/12/29 07:51:38;;;;;;;3.63;1.20;;;;;;;5.70;100.00;95727.03;4907248;29;20083;-91
2022/12/29 07:54:04;;;;;;;3.27;1.10;;;;;;;5.80;100.00;95720.00;4905423;29;20046;-93
2022/12/29 07:56:29;;;;;;;4.17;1.40;;;;;;;5.93;100.00;95722.28;4914920;29;20035;-92
2022/12/29 07:58:55;;;;;;;7.13;1.50;;;;;;;6.04;100.00;95721.31;4924384;29;20079;-92
2022/12/29 08:01:39;;;;;;;3.93;1.40;;;;;;;6.08;100.00;95727.88;4941144;29;20027;-92
2022/12/29 08:04:07;;;;;;;4.27;1.50;;;;;;;6.21;100.00;95725.75;4953131;28;20043;-91
2022/12/29 08:06:33;;;;;;;3.60;1.57;;;;;;;6.23;100.00;95728.22;4948619;29;20032;-92
2022/12/29 08:09:09;;;;;;;4.27;1.13;;;;;;;6.31;100.00;95726.53;4909636;29;20071;-90
2022/12/29 08:11:36;;;;;;;2.53;1.00;;;;;;;6.34;100.00;95728.84;4932765;29;20791;-90
2022/12/29 08:14:02;;;;;;;3.63;1.20;;;;;;;6.40;100.00;95727.44;4936881;29;20044;-91
2022/12/29 08:16:28;;;;;;;3.87;1.47;;;;;;;6.46;100.00;95723.44;4925426;29;20494;-91
2022/12/29 08:18:54;;;;;;;4.13;1.50;;;;;;;6.52;100.00;95733.28;4935919;29;20130;-92
2022/12/29 08:21:19;;;;;;;3.37;1.30;;;;;;;6.62;100.00;95736.66;4930855;29;20524;-91
2022/12/29 08:23:45;;;;;;;6.63;1.70;;;;;;;6.78;100.00;95736.03;4916382;29;20040;-91
2022/12/29 08:26:11;;;;;;;4.17;1.20;;;;;;;6.86;100.00;95736.09;4943935;29;20041;-92
2022/12/29 08:28:38;;;;;;;5.17;1.30;;;;;;;6.89;100.00;95737.59;4920964;29;20473;-91
2022/12/29 08:31:05;;;;;;;4.50;1.10;;;;;;;6.98;100.00;95742.75;4945426;29;20084;-92
2022/12/29 08:33:35;;;;;;;5.33;1.17;;;;;;;7.13;100.00;95724.75;4944549;29;20434;-91
2022/12/29 08:36:06;;;;;;;3.10;1.40;;;;;;;7.38;100.00;95735.41;4921600;29;20103;-92
2022/12/29 08:38:33;;;;;;;3.13;1.20;;;;;;;7.72;100.00;95730.25;4937729;29;20763;-92
2022/12/29 08:41:05;;;;;;;4.63;1.20;;;;;;;7.83;100.00;95737.84;4946526;29;20036;-91
2022/12/29 08:43:31;;;;;;;4.40;1.80;;;;;;;7.83;100.00;95731.78;4940712;28;20038;-91
2022/12/29 08:45:58;;;;;;;3.50;1.00;;;;;;;8.04;100.00;95727.00;4938508;29;20028;-92
2022/12/29 08:48:26;;;;;;;3.87;1.10;;;;;;;8.18;100.00;95725.59;4936239;29;20040;-91
2022/12/29 08:50:53;;;;;;;2.60;1.20;;;;;;;8.20;100.00;95731.50;4920335;29;20040;-91
2022/12/29 08:53:19;;;;;;;3.33;1.20;;;;;;;8.34;100.00;95723.03;4908594;29;20701;-88
2022/12/29 08:55:46;;;;;;;5.70;1.40;;;;;;;8.48;100.00;95726.88;4935685;29;20056;-85
2022/12/29 08:58:14;;;;;;;3.37;1.33;;;;;;;8.40;100.00;95729.50;4903401;29;20032;-92
2022/12/29 09:00:42;;;;;;;4.53;1.20;;;;;;;8.59;100.00;95734.47;4941287;29;20044;-92
2022/12/29 09:03:08;;;;;;;3.57;1.10;;;;;;;8.66;100.00;95739.91;4925767;29;20047;-87
2022/12/29 09:05:34;;;;;;;3.27;1.03;;;;;;;8.68;100.00;95736.13;4936175;29;20032;-92
2022/12/29 09:08:00;;;;;;;2.10;1.20;;;;;;;8.90;100.00;95736.53;4919590;29;20039;-91
2022/12/29 09:10:25;;;;;;;3.43;1.30;;;;;;;9.35;100.00;95727.38;4942647;29;20741;-92
2022/12/29 09:12:51;;;;;;;3.53;1.60;;;;;;;8.87;100.00;95724.53;4944080;29;20674;-91
2022/12/29 09:15:19;;;;;;;5.07;2.00;;;;;;;8.66;100.00;95718.94;4904204;29;20035;-91
2022/12/29 09:17:45;;;;;;;5.67;2.30;;;;;;;8.55;100.00;95722.69;4938204;29;20024;-92
2022/12/29 09:20:18;;;;;;;3.33;1.50;;;;;;;8.52;100.00;95723.00;4936080;29;20036;-91
2022/12/29 09:22:45;;;;;;;3.83;1.27;;;;;;;8.53;100.00;95724.63;4906130;29;20054;-91
2022/12/29 09:25:11;;;;;;;4.03;1.57;;;;;;;8.62;100.00;95730.72;4920966;29;20043;-93
2022/12/29 09:27:37;;;;;;;7.67;1.40;;;;;;;8.69;100.00;95723.84;4937169;29;20477;-93
2022/12/29 09:30:05;;;;;;;4.63;1.40;;;;;;;8.82;100.00;95716.34;4945899;29;20032;-91
2022/12/29 09:32:31;;;;;;;7.30;1.23;;;;;;;8.89;100.00;95724.41;4930566;29;20504;-93
2022/12/29 09:35:00;;;;;;;2.73;1.30;;;;;;;8.81;100.00;95727.00;4902727;29;20035;-93
2022/12/29 09:37:26;;;;;;;4.00;1.80;;;;;;;8.92;100.00;95735.38;4942389;29;20043;-93
2022/12/29 09:39:53;;;;;;;4.77;1.70;;;;;;;8.95;100.00;95734.22;4911517;29;20445;-93
2022/12/29 09:42:45;;;;;;;4.10;1.40;;;;;;;9.12;100.00;95730.66;4944106;29;20082;-93
2022/12/29 09:45:26;;;;;;;6.03;2.07;;;;;;;9.13;100.00;95726.22;4919047;29;20082;-93
2022/12/29 09:47:52;;;;;;;6.50;2.53;;;;;;;9.10;100.00;95730.00;4934264;29;20043;-93
2022/12/29 09:50:36;;;;;;;5.60;1.90;;;;;;;8.97;100.00;95737.50;4958266;29;20124;-94
2022/12/29 09:53:21;;;;;;;6.43;1.87;;;;;;;8.95;100.00;95740.31;4933723;29;20387;-94
2022/12/29 09:56:00;;;;;;;4.47;2.30;;;;;;;8.91;100.00;95738.16;4929057;29;20130;-94
2022/12/29 09:58:37;;;;;;;7.13;2.77;;;;;;;8.91;100.00;95740.78;4952914;29;20047;-94
2022/12/29 10:01:12;;;;;;;4.80;2.47;;;;;;;8.96;100.00;95734.06;4954877;29;20044;-94
2022/12/29 10:03:47;;;;;;;8.47;2.80;;;;;;;9.05;100.00;95740.13;4929145;29;20036;-94
2022/12/29 10:06:33;;;;;;;5.40;2.70;;;;;;;9.02;100.00;95737.88;4925186;29;20039;-95
2022/12/29 10:09:45;;;;;;;2.73;1.60;;;;;;;8.94;100.00;95733.41;4937960;29;20084;-94
2022/12/29 10:12:16;;;;;;;3.70;1.60;;;;;;;8.92;100.00;95739.78;4931908;29;20043;-94
2022/12/29 10:15:00;;;;;;;9.00;1.87;;;;;;;8.91;100.00;95738.16;4937083;29;20036;-94
2022/12/29 10:18:03;;;;;;;6.47;2.43;;;;;;;8.91;100.00;95732.91;4952057;29;20035;-94
2022/12/29 10:20:48;;;;;;;4.10;1.67;;;;;;;8.94;100.00;95733.41;4943822;29;20078;-95
2022/12/29 10:23:14;;;;;;;5.00;2.57;;;;;;;8.91;100.00;95728.47;4938442;29;20509;-95
2022/12/29 10:25:46;;;;;;;3.20;1.77;;;;;;;8.93;100.00;95726.53;4933698;29;20023;-94
2022/12/29 10:28:25;;;;;;;5.07;1.90;;;;;;;8.91;100.00;95725.03;4931480;29;20535;-94
2022/12/29 10:30:53;;;;;;;4.97;1.70;;;;;;;9.03;100.00;95720.31;4933809;29;20046;-95
2022/12/29 10:33:27;;;;;;;7.80;2.30;;;;;;;9.28;100.00;95723.78;4925465;29;20048;-94
2022/12/29 10:35:53;;;;;;;3.70;1.40;;;;;;;9.75;100.00;95720.47;4935725;29;20513;-95
2022/12/29 10:38:40;;;;;;;4.57;1.80;;;;;;;9.97;100.00;95718.94;4921012;29;20032;-95
2022/12/29 10:41:13;;;;;;;4.30;1.33;;;;;;;10.14;100.00;95710.03;4924775;29;20047;-95
2022/12/29 10:43:47;;;;;;;3.60;1.27;;;;;;;10.17;100.00;95720.22;4913241;29;20039;-95
2022/12/29 10:46:26;;;;;;;3.37;1.10;;;;;;;10.14;100.00;95712.66;4911313;29;20059;-93
2022/12/29 10:48:52;;;;;;;2.77;1.20;;;;;;;10.12;100.00;95709.38;4928220;29;20036;-94
2022/12/29 10:51:41;;;;;;;6.93;1.67;;;;;;;10.13;100.00;95716.28;4911961;29;20066;-95
2022/12/29 10:54:28;;;;;;;3.30;1.07;;;;;;;10.06;100.00;95713.50;4944110;29;20039;-95
2022/12/29 10:57:09;;;;;;;2.67;1.40;;;;;;;10.02;100.00;95717.44;4895078;29;20040;-95
2022/12/29 10:59:44;;;;;;;4.43;1.17;;;;;;;10.07;100.00;95719.59;4922581;29;20070;-94
2022/12/29 11:02:27;;;;;;;2.67;1.20;;;;;;;10.06;100.00;95718.78;4944521;29;20107;-95
2022/12/29 11:05:49;;;;;;;3.78;1.50;;;;;;;10.21;100.00;95707.53;4944699;29;20577;-95
2022/12/29 11:11:38;;;;;;;3.97;1.40;;;;;;;10.37;100.00;95699.63;4929541;29;20039;-95
2022/12/29 11:14:13;;;;;;;2.27;1.30;;;;;;;10.35;100.00;95702.41;4930398;29;20123;-95
2022/12/29 11:16:41;;;;;;;7.13;1.80;;;;;;;10.35;100.00;95707.69;4926043;29;20054;-95
2022/12/29 11:19:25;;;;;;;3.57;1.40;;;;;;;10.56;100.00;95708.91;4929547;29;20063;-95
2022/12/29 11:21:52;;;;;;;10.60;1.53;;;;;;;10.64;100.00;95713.31;4934039;29;20036;-96
2022/12/29 11:24:25;;;;;;;5.37;1.20;;;;;;;10.64;100.00;95713.31;4888138;29;20031;-96
2022/12/29 11:30:39;;;;;;;3.27;1.47;;;;;;;10.68;100.00;95709.34;4931549;29;20061;-96
2022/12/29 11:33:06;;;;;;;4.97;1.50;;;;;;;11.64;100.00;95703.56;4947644;29;20055;-96
2022/12/29 11:39:39;;;;;;;4.43;1.50;;;;;;;11.29;100.00;95707.63;4938698;29;20046;-96
2022/12/29 11:42:12;;;;;;;4.43;1.30;;;;;;;11.20;100.00;95711.31;4922168;29;20027;-96
2022/12/29 11:45:22;;;;;;;5.57;1.40;;;;;;;11.00;100.00;95703.06;4921368;29;20071;-94
2022/12/29 11:47:52;;;;;;;5.90;1.57;;;;;;;10.80;100.00;95697.44;4919146;29;20482;-94
2022/12/29 11:50:22;;;;;;;4.80;1.87;;;;;;;10.73;100.00;95702.59;4906908;29;20036;-93
2022/12/29 11:52:57;;;;;;;4.27;1.30;;;;;;;10.61;100.00;95691.63;4934692;28;20031;-94
2022/12/29 11:55:26;;;;;;;5.13;1.47;;;;;;;10.62;100.00;95705.59;4918732;29;20490;-94
2022/12/29 11:57:55;;;;;;;6.20;1.20;;;;;;;10.65;100.00;95712.31;4927860;29;20127;-95
2022/12/29 12:00:24;;;;;;;3.47;1.57;;;;;;;10.65;100.00;95707.88;4921574;29;20028;-93
2022/12/29 12:03:19;;;;;;;6.33;1.93;;;;;;;10.61;100.00;95710.03;4929589;29;20478;-93
2022/12/29 12:05:56;;;;;;;5.73;1.70;;;;;;;10.62;100.00;95711.66;4919830;29;20509;-94
2022/12/29 12:08:51;;;;;;;4.80;2.10;;;;;;;10.64;100.00;95710.69;4933795;29;20035;-92
2022/12/29 12:11:22;;;;;;;3.83;1.67;;;;;;;10.61;100.00;95709.22;4923425;29;20023;-92
2022/12/29 12:14:15;;;;;;;2.43;1.37;;;;;;;10.69;100.00;95708.34;4913570;29;20031;-90
2022/12/29 12:17:04;;;;;;;3.43;1.80;;;;;;;10.70;100.00;95710.00;4899800;29;20098;-90
2022/12/29 12:19:42;;;;;;;4.73;1.80;;;;;;;10.76;100.00;95706.66;4920307;29;20056;-91
2022/12/29 12:22:12;;;;;;;6.90;2.73;;;;;;;10.65;100.00;95704.44;4949813;29;20122;-91
2022/12/29 12:24:58;;;;;;;6.00;2.37;;;;;;;10.56;100.00;95707.13;4919472;29;20028;-90
2022/12/29 12:27:29;;;;;;;3.60;1.30;;;;;;;10.52;100.00;95700.53;4929649;29;20046;-90
2022/12/29 12:30:19;;;;;;;4.03;1.13;;;;;;;10.46;100.00;95709.13;4921592;29;20104;-90
2022/12/29 12:33:00;;;;;;;4.53;1.40;;;;;;;10.41;100.00;95710.63;4905778;29;20082;-90
2022/12/29 12:35:39;;;;;;;3.37;1.10;;;;;;;10.34;100.00;95710.50;4943658;29;20040;-89
2022/12/29 12:38:35;;;;;;;5.27;1.50;;;;;;;10.37;100.00;95710.16;4940135;29;20042;-90
2022/12/29 12:41:04;;;;;;;5.60;1.13;;;;;;;10.34;100.00;95710.50;4933586;28;20048;-89
2022/12/29 12:43:37;;;;;;;5.70;1.40;;;;;;;10.33;100.00;95708.84;4929708;28;20051;-89
2022/12/29 12:46:28;;;;;;;8.40;4.03;;;;;;;10.35;100.00;95712.13;4951628;28;20100;-88
2022/12/29 12:48:57;;;;;;;4.90;1.60;;;;;;;10.40;100.00;95717.69;4918454;29;20047;-89
2022/12/29 12:51:27;;;;;;;5.80;2.03;;;;;;;10.34;100.00;95715.75;4920965;29;20336;-90
2022/12/29 12:54:18;;;;;;;4.53;2.30;;;;;;;10.35;100.00;95712.13;4927519;29;20039;-90
2022/12/29 12:57:12;;;;;;;8.67;3.50;;;;;;;10.36;100.00;95719.00;4922031;29;20062;-89
2022/12/29 13:00:02;;;;;;;5.83;2.17;;;;;;;10.37;100.00;95720.66;4915812;29;20032;-89
2022/12/29 13:02:39;;;;;;;4.83;1.30;;;;;;;10.31;100.00;95716.91;4925145;29;20039;-90
2022/12/29 13:05:08;;;;;;;6.07;2.20;;;;;;;10.33;100.00;95714.13;4911705;29;20034;-89
2022/12/29 13:08:19;;;;;;;4.97;2.00;;;;;;;10.26;100.00;95713.13;4928871;29;20098;-90
2022/12/29 13:10:54;;;;;;;;;;;;;;;10.28;100.00;95714.59;4924597;29;20064;-90
2022/12/29 13:13:35;;;;;;;7.53;2.90;;;;;;;10.22;100.00;95724.94;4924319;29;19915;-89
2022/12/29 13:16:06;;;;;;;8.07;2.70;;;;;;;10.15;100.00;95723.00;4921626;29;20751;-89
2022/12/29 13:18:51;;;;;;;5.97;1.90;;;;;;;10.14;100.00;95718.72;4929139;29;20019;-88
2022/12/29 13:21:38;;;;;;;6.10;2.17;;;;;;;10.07;100.00;95724.84;4943690;28;20103;-90
2022/12/29 13:24:40;;;;;;;4.97;2.07;;;;;;;9.97;100.00;95735.53;4909560;29;20047;-90
2022/12/29 13:27:08;;;;;;;8.57;1.73;;;;;;;9.89;100.00;95727.66;4905406;29;20039;-88
2022/12/29 13:30:04;;;;;;;5.57;1.93;;;;;;;9.81;100.00;95723.25;4908688;29;20182;-88
2022/12/29 13:32:55;;;;;;;4.73;1.90;;;;;;;9.88;100.00;95731.28;4937559;29;20122;-89
2022/12/29 13:35:24;;;;;;;7.73;1.53;;;;;;;9.81;100.00;95730.31;4925212;29;20055;-88
2022/12/29 13:38:00;;;;;;;2.40;1.20;;;;;;;9.79;100.00;95733.09;4940979;28;20071;-88
2022/12/29 13:40:33;;;;;;;5.20;1.60;;;;;;;9.76;100.00;95725.56;4928856;29;20147;-88
2022/12/29 13:43:02;;;;;;;4.15;1.73;;;;;;;9.79;100.00;95725.22;4920202;29;20110;-88
2022/12/29 13:45:31;;;;;;;5.47;1.77;;;;;;;9.82;100.00;95737.19;4928265;29;20091;-88
2022/12/29 13:48:07;;;;;;;5.67;1.87;;;;;;;9.74;100.00;95743.28;4926784;29;20070;-88
2022/12/29 13:50:38;;;;;;;3.67;1.80;;;;;;;9.87;100.00;95733.09;4936789;29;20126;-85
2022/12/29 13:53:25;;;;;;;6.60;1.30;;;;;;;9.87;100.00;95743.59;4927052;29;20054;-92
2022/12/29 13:56:14;;;;;;;9.73;5.27;;;;;;;9.86;100.00;95741.16;4935561;29;20116;-90
2022/12/29 13:59:40;;;;;;;4.10;2.20;;;;;;;9.81;100.00;95748.69;4933290;29;20039;-91
2022/12/29 14:02:37;;;;;;;3.83;1.10;;;;;;;9.72;100.00;95752.28;4910045;29;20039;-89
2022/12/29 18:50:04;;;;;;;6.10;3.30;;;;;;;7.05;100.00;95926.81;4930069;28;20027;-92
2022/12/29 18:52:35;;;;;;;3.67;2.00;;;;;;;7.03;100.00;95941.00;4900393;29;20036;-91
2022/12/29 18:55:05;;;;;;;4.07;1.70;;;;;;;7.02;100.00;95940.19;4889174;29;20040;-89
2022/12/29 18:57:46;;;;;;;25.90;15.67;;;;;;;7.03;100.00;95938.38;4887945;29;20036;-90
2022/12/29 19:00:26;;;;;;;7.27;4.10;;;;;;;7.01;100.00;95942.94;4887235;29;20044;-88
2022/12/29 19:02:52;;;;;;;8.40;4.43;;;;;;;6.98;100.00;95946.66;4907206;29;20598;-92
2022/12/29 19:05:27;;;;;;;6.40;3.07;;;;;;;6.97;100.00;95949.41;4891744;29;20022;-90
2022/12/29 19:07:53;;;;;;;5.20;2.73;;;;;;;6.92;100.00;95962.94;4894865;29;20132;-90
2022/12/29 19:10:22;;;;;;;6.27;2.90;;;;;;;6.92;100.00;95947.25;4888718;29;20028;-91
2022/12/29 19:12:48;;;;;;;7.50;4.23;;;;;;;6.95;100.00;95949.56;4909919;29;20083;-91
2022/12/29 19:15:25;;;;;;;7.87;3.80;;;;;;;6.97;100.00;95942.38;4901971;29;20398;-90
2022/12/29 19:17:55;;;;;;;8.03;3.70;;;;;;;7.05;100.00;95944.31;4886501;29;20050;-92
2022/12/29 19:20:43;;;;;;;5.80;2.40;;;;;;;7.05;100.00;95952.16;4907978;29;20186;-91
2022/12/29 19:23:17;;;;;;;5.63;1.97;;;;;;;7.04;100.00;95946.09;4901372;29;20055;-91
2022/12/29 19:25:44;;;;;;;4.77;1.90;;;;;;;6.98;100.00;95949.28;4896581;29;20112;-89
2022/12/29 19:28:27;;;;;;;6.33;2.00;;;;;;;6.96;100.00;95945.16;4877534;29;20044;-91
2022/12/29 19:30:59;;;;;;;6.25;1.77;;;;;;;6.96;100.00;95942.53;4882978;29;20511;-91
2022/12/29 19:33:26;;;;;;;5.23;1.60;;;;;;;6.93;100.00;95943.66;4884308;29;20559;-91
2022/12/29 19:36:00;;;;;;;3.67;2.23;;;;;;;6.92;100.00;95943.81;4888682;29;20036;-92
2022/12/29 19:38:30;;;;;;;4.30;2.03;;;;;;;6.87;100.00;95940.78;4894581;29;20079;-91
2022/12/29 19:41:06;;;;;;;17.07;9.17;;;;;;;6.84;100.00;95950.56;4889483;29;20041;-91
2022/12/29 19:43:36;;;;;;;5.73;2.40;;;;;;;6.81;100.00;95960.50;4888879;29;20478;-91
2022/12/29 19:46:07;;;;;;;3.70;1.17;;;;;;;6.81;100.00;95948.25;4887697;29;20040;-91
2022/12/29 19:48:34;;;;;;;6.50;1.73;;;;;;;6.80;100.00;95948.38;4884863;29;20489;-92
2022/12/29 19:51:10;;;;;;;5.87;1.30;;;;;;;6.75;100.00;95946.19;4887561;29;20036;-92
2022/12/29 19:53:37;;;;;;;3.83;1.17;;;;;;;6.68;100.00;95945.13;4896435;29;20042;-91
2022/12/29 19:56:07;;;;;;;6.37;2.90;;;;;;;6.64;100.00;95943.78;4881938;29;20096;-92
2022/12/29 19:58:36;;;;;;;7.20;2.23;;;;;;;6.59;100.00;95953.81;4882644;29;20043;-91
2022/12/29 20:01:11;;;;;;;11.00;5.20;;;;;;;6.59;100.00;95948.59;4887413;29;20020;-91
2022/12/29 20:03:39;;;;;;;7.20;3.80;;;;;;;6.61;100.00;95959.72;4887294;29;20089;-92
2022/12/29 20:06:08;;;;;;;5.30;2.80;;;;;;;6.53;100.00;95963.03;4887388;29;20020;-91
2022/12/29 20:08:36;;;;;;;5.97;2.90;;;;;;;6.58;100.00;95965.22;4888889;29;20032;-91
2022/12/29 20:11:05;;;;;;;5.20;2.00;;;;;;;6.62;100.00;95961.38;4884023;29;20059;-91
2022/12/29 20:13:36;;;;;;;8.60;2.50;;;;;;;6.57;100.00;95971.41;4878876;29;20042;-91
2022/12/29 20:16:06;;;;;;;8.57;2.23;;;;;;;6.56;100.00;95961.91;4889927;29;20047;-91
2022/12/29 20:18:34;;;;;;;7.97;2.27;;;;;;;6.43;100.00;95969.25;4887678;29;20093;-91
2022/12/29 20:21:10;;;;;;;5.30;1.83;;;;;;;6.44;100.00;95970.88;4887211;29;20514;-91
2022/12/29 20:23:43;;;;;;;4.87;2.03;;;;;;;6.43;100.00;95982.28;4894018;29;20072;-91
2022/12/29 20:26:19;;;;;;;5.43;2.10;;;;;;;6.38;100.00;95986.16;4890247;29;20103;-91
2022/12/29 20:28:45;;;;;;;7.30;2.10;;;;;;;6.33;100.00;95979.69;4902122;29;20777;-91
2022/12/29 20:31:18;;;;;;;8.03;2.13;;;;;;;6.26;100.00;95978.59;4903521;29;20063;-91
2022/12/29 20:33:45;;;;;;;6.70;2.50;;;;;;;6.28;100.00;95979.31;4908318;29;20020;-91
2022/12/29 20:36:17;;;;;;;6.40;2.10;;;;;;;6.25;100.00;95974.34;4889785;29;20672;-90
2022/12/29 20:38:44;;;;;;;3.97;1.42;;;;;;;6.27;100.00;95973.25;4887405;29;20167;-90
2022/12/29 20:41:21;;;;;;;6.40;1.83;;;;;;;6.24;100.00;95978.75;4894098;29;20063;-91
2022/12/29 20:43:51;;;;;;;4.30;1.70;;;;;;;6.23;100.00;95978.88;4901512;29;20044;-90
2022/12/29 20:46:18;;;;;;;9.23;2.13;;;;;;;6.26;100.00;95976.00;4888529;29;20226;-90
2022/12/29 20:48:44;;;;;;;6.50;2.10;;;;;;;6.24;100.00;95976.16;4902197;29;20044;-93
2022/12/29 20:51:32;;;;;;;8.43;1.80;;;;;;;6.20;100.00;95977.34;4889654;29;20060;-92
2022/12/29 20:54:05;;;;;;;3.63;1.40;;;;;;;6.19;100.00;95978.34;4882024;29;20044;-91
2022/12/29 20:56:32;;;;;;;6.03;2.70;;;;;;;6.25;100.00;95976.97;4901155;29;20032;-91
2022/12/29 20:58:58;;;;;;;4.10;1.50;;;;;;;6.25;100.00;95984.81;4895134;29;20148;-91
2022/12/29 21:01:25;;;;;;;7.80;2.10;;;;;;;6.22;100.00;95983.28;4898631;29;20035;-91
2022/12/29 21:03:58;;;;;;;6.07;2.00;;;;;;;6.16;100.00;95989.06;4893893;29;20044;-93
2022/12/29 21:06:25;;;;;;;7.20;2.77;;;;;;;6.14;100.00;95977.94;4905814;29;20034;-91
2022/12/29 21:08:54;;;;;;;7.47;2.23;;;;;;;6.14;100.00;95988.38;4913564;29;20059;-91
2022/12/29 21:11:20;;;;;;;10.40;5.47;;;;;;;6.08;100.00;95994.16;4886985;29;20032;-91
2022/12/29 21:13:48;;;;;;;12.67;7.33;;;;;;;6.07;100.00;95992.47;4886179;29;20076;-91
2022/12/29 21:16:19;;;;;;;4.57;1.40;;;;;;;6.07;100.00;95993.34;4890920;29;20084;-91
2022/12/29 21:18:46;;;;;;;4.80;1.03;;;;;;;6.01;100.00;95999.09;4897492;29;20055;-91
2022/12/29 21:21:18;;;;;;;4.77;1.20;;;;;;;6.01;100.00;96004.31;4886210;29;20521;-91
2022/12/29 21:23:44;;;;;;;5.23;1.13;;;;;;;5.98;100.00;96008.97;4879760;29;20125;-91
2022/12/29 21:26:18;;;;;;;4.53;1.00;;;;;;;5.97;100.00;96017.75;4887494;29;20043;-91
2022/12/29 21:28:45;;;;;;;4.70;1.33;;;;;;;6.00;100.00;96014.88;4874214;29;20046;-91
2022/12/29 21:31:32;;;;;;;3.37;1.63;;;;;;;5.96;100.00;96026.56;4889760;29;20095;-91
2022/12/29 21:33:59;;;;;;;5.37;1.17;;;;;;;5.95;100.00;96024.91;4886583;29;20032;-91
2022/12/29 21:36:26;;;;;;;3.63;1.07;;;;;;;5.94;100.00;96033.72;4883662;29;20029;-91
2022/12/29 21:38:52;;;;;;;6.03;2.43;;;;;;;5.97;100.00;96036.03;4904204;29;20103;-91
2022/12/29 21:41:17;;;;;;;4.93;1.13;;;;;;;5.89;100.00;96042.72;4891603;29;20142;-91
2022/12/29 21:45:23;;;;;;;5.97;0.97;;;;;;;5.90;100.00;96038.31;4890236;29;20016;-90
2022/12/29 21:46:36;;;;;;;5.17;1.23;;;;;;;5.90;100.00;96049.59;4902719;29;20036;-91
2022/12/29 21:49:03;;;;;;;3.37;1.33;;;;;;;5.83;100.00;96050.25;4903522;29;20043;-91
2022/12/29 21:56:58;;;;;;;3.60;0.80;;;;;;;5.80;100.00;96069.63;4924762;29;20036;-91
2022/12/29 22:13:38;;;;;;;1.57;0.40;;;;;;;5.44;100.00;96090.09;4899466;29;20040;-91
2022/12/29 22:16:09;;;;;;;2.65;0.70;;;;;;;5.45;100.00;96088.31;4910774;29;20059;-90
2022/12/29 22:18:41;;;;;;;1.03;0.47;;;;;;;5.44;100.00;96084.91;4907446;28;20035;-90
2022/12/29 22:21:10;;;;;;;1.87;0.50;;;;;;;5.37;100.00;96082.94;4887678;29;20135;-90
2022/12/29 22:23:36;;;;;;;2.27;0.60;;;;;;;5.40;100.00;96082.69;4886652;29;20052;-90
2022/12/29 22:26:07;;;;;;;3.63;0.80;;;;;;;5.38;100.00;96084.59;4902880;29;20145;-90
2022/12/29 22:28:47;;;;;;;0.93;0.33;;;;;;;5.37;100.00;96073.34;4886825;29;20044;-90
2022/12/29 22:31:27;;;;;;;3.20;0.63;;;;;;;5.42;100.00;96068.53;4887599;29;20075;-90
2022/12/29 22:33:59;;;;;;;1.60;0.30;;;;;;;5.36;100.00;96066.44;4910317;29;20044;-90
2022/12/29 22:36:26;;;;;;;1.73;0.40;;;;;;;5.43;100.00;96062.38;4886156;29;20040;-90
2022/12/29 22:38:51;;;;;;;2.57;0.53;;;;;;;5.43;100.00;96064.16;4892645;29;20087;-90
2022/12/29 22:41:18;;;;;;;0.67;0.30;;;;;;;5.47;100.00;96073.38;4885586;29;20688;-90
2022/12/29 22:43:43;;;;;;;1.53;0.60;;;;;;;5.46;100.00;96070.88;4895585;29;20071;-90
2022/12/29 22:46:10;;;;;;;3.37;1.20;;;;;;;5.37;100.00;96068.13;4891387;29;20697;-90
2022/12/29 22:48:38;;;;;;;3.73;0.90;;;;;;;5.34;100.00;96070.16;4891193;29;20043;-90
2022/12/29 22:51:04;;;;;;;2.93;0.70;;;;;;;5.31;100.00;96079.06;4884157;29;20036;-90
2022/12/29 22:53:30;;;;;;;2.20;0.80;;;;;;;5.34;100.00;96078.00;4885082;29;20521;-91
2022/12/29 22:56:08;;;;;;;1.13;0.60;;;;;;;5.33;100.00;96069.34;4891830;29;20044;-90
2022/12/29 22:58:38;;;;;;;2.30;0.53;;;;;;;5.35;100.00;96067.41;4909011;29;20043;-90
2022/12/29 23:01:04;;;;;;;1.57;0.53;;;;;;;5.29;100.00;96067.94;4907596;29;20040;-90
2022/12/29 23:03:31;;;;;;;5.93;0.93;;;;;;;5.30;100.00;96074.81;4888255;29;20046;-90
2022/12/29 23:05:59;;;;;;;1.37;0.40;;;;;;;5.29;100.00;96080.97;4890300;29;20043;-90
2022/12/29 23:08:31;;;;;;;1.33;0.60;;;;;;;5.35;100.00;96080.47;4887770;29;20059;-90
2022/12/29 23:10:57;;;;;;;1.43;0.47;;;;;;;5.32;100.00;96091.16;4892529;29;20050;-91
2022/12/29 23:13:26;;;;;;;1.40;0.50;;;;;;;5.30;100.00;96097.44;4895594;29;20115;-91
2022/12/29 23:15:52;;;;;;;1.53;0.73;;;;;;;5.32;100.00;96098.97;4888807;29;20051;-90
2022/12/29 23:18:18;;;;;;;2.23;0.60;;;;;;;5.30;100.00;96106.13;4889542;29;20474;-91
2022/12/29 23:20:44;;;;;;;3.63;0.53;;;;;;;5.26;100.00;96107.31;4901463;29;20048;-90
2022/12/29 23:23:11;;;;;;;0.83;0.33;;;;;;;5.24;100.00;96111.03;4884680;29;20064;-91
2022/12/29 23:25:41;;;;;;;2.30;0.63;;;;;;;5.25;100.00;96113.47;4888493;29;20052;-91
2022/12/29 23:28:08;;;;;;;3.80;0.60;;;;;;;5.30;100.00;96108.72;4887357;29;20036;-91
2022/12/29 23:30:36;;;;;;;0.87;0.40;;;;;;;5.28;100.00;96113.22;4897999;29;20024;-91
2022/12/29 23:33:04;;;;;;;2.13;0.50;;;;;;;5.27;100.00;96119.41;4867793;29;20040;-91
2022/12/29 23:35:38;;;;;;;2.30;0.73;;;;;;;5.25;100.00;96108.28;4896823;29;20407;-90
2022/12/29 23:38:04;;;;;;;;;;;;;;;5.25;100.00;96115.28;4877040;29;20055;-91
2022/12/29 23:40:44;;;;;;;1.40;0.50;;;;;;;5.29;100.00;96109.66;4892171;29;19915;-91
2022/12/29 23:43:15;;;;;;;1.83;0.50;;;;;;;5.24;100.00;96116.22;4888647;29;20048;-91
2022/12/29 23:45:42;;;;;;;2.57;0.53;;;;;;;5.22;100.00;96105.91;4900340;29;20447;-91
2022/12/29 23:48:14;;;;;;;3.10;0.57;;;;;;;5.20;100.00;96120.88;4894368;29;20091;-91
2022/12/29 23:50:41;;;;;;;2.03;0.90;;;;;;;5.16;100.00;96122.91;4889129;29;20032;-91
2022/12/29 23:53:07;;;;;;;1.10;0.50;;;;;;;5.15;100.00;96128.25;4907486;29;20043;-90
2022/12/29 23:55:37;;;;;;;1.63;0.40;;;;;;;5.15;100.00;96125.63;4896683;29;20032;-91
2022/12/29 23:58:06;;;;;;;2.50;0.70;;;;;;;5.16;100.00;96125.53;4893796;29;20946;-90
